Time,TemperatureF,DewpointF,PressureIn,WindDirection,WindDirectionDegrees,WindSpeedMPH,WindSpeedGustMPH,Humidity,HourlyPrecipIn,Conditions,Clouds,dailyrainin,SoftwareType,DateUTC
2013-05-09 00:00:00,63.0,60.0,30.00,SSE,157,5.0,6.0,92,0.00,,,0.00,TxWx,2013-05-09 04:00:00,
2013-05-09 00:04:00,63.0,60.0,30.00,ESE,112,3.0,4.0,92,0.00,,,0.00,TxWx,2013-05-09 04:04:00,
2013-05-09 00:09:00,63.0,60.0,30.00,SSE,157,4.0,4.0,92,0.00,,,0.00,TxWx,2013-05-09 04:09:00,
2013-05-09 00:14:00,63.0,60.0,30.00,SSE,157,3.0,3.0,91,0.00,,,0.00,TxWx,2013-05-09 04:14:00,
2013-05-09 00:19:00,63.0,60.0,30.00,ESE,112,5.0,5.0,91,0.00,,,0.00,TxWx,2013-05-09 04:19:00,
2013-05-09 00:24:00,63.0,60.0,30.00,South,180,4.0,4.0,91,0.00,,,0.00,TxWx,2013-05-09 04:24:00,
2013-05-09 00:32:00,63.0,60.0,30.00,South,180,3.0,4.0,91,0.00,,,0.00,TxWx,2013-05-09 04:32:00,
2013-05-09 00:37:00,62.0,59.0,30.00,South,180,3.0,6.0,91,0.00,,,0.00,TxWx,2013-05-09 04:37:00,
2013-05-09 00:43:00,62.0,59.0,29.99,SE,135,0.0,0.0,91,0.00,,,0.00,TxWx,2013-05-09 04:43:00,
2013-05-09 00:48:00,62.0,59.0,29.99,ESE,112,4.0,4.0,91,0.00,,,0.00,TxWx,2013-05-09 04:48:00,
2013-05-09 00:56:00,62.0,59.0,29.99,SE,135,3.0,4.0,92,0.00,,,0.00,TxWx,2013-05-09 04:56:00,
2013-05-09 01:01:00,62.0,60.0,29.99,ESE,112,1.0,3.0,92,0.00,,,0.00,TxWx,2013-05-09 05:01:00,
2013-05-09 01:07:00,62.0,60.0,29.99,South,180,4.0,4.0,92,0.00,,,0.00,TxWx,2013-05-09 05:07:00,
2013-05-09 01:14:00,61.0,59.0,29.99,South,180,5.0,5.0,93,0.00,,,0.00,TxWx,2013-05-09 05:14:00,
2013-05-09 01:19:00,61.0,59.0,29.98,SSE,157,4.0,5.0,93,0.00,,,0.00,TxWx,2013-05-09 05:19:00,
2013-05-09 01:24:00,61.0,59.0,29.98,SSE,157,5.0,5.0,93,0.00,,,0.00,TxWx,2013-05-09 05:24:00,
2013-05-09 01:29:00,61.0,59.0,29.98,SE,135,1.0,3.0,93,0.00,,,0.00,TxWx,2013-05-09 05:29:00,
2013-05-09 01:35:00,61.0,59.0,29.98,SSE,157,3.0,5.0,94,0.00,,,0.00,TxWx,2013-05-09 05:35:00,
2013-05-09 01:40:00,61.0,59.0,29.98,SSE,157,3.0,3.0,94,0.00,,,0.00,TxWx,2013-05-09 05:40:00,
2013-05-09 01:45:00,61.0,59.0,29.98,SSE,157,0.0,0.0,94,0.00,,,0.00,TxWx,2013-05-09 05:45:00,
2013-05-09 01:50:00,61.0,59.0,29.98,SE,135,0.0,1.0,94,0.00,,,0.00,TxWx,2013-05-09 05:50:00,
2013-05-09 01:55:00,60.0,58.0,29.97,SE,135,0.0,1.0,94,0.00,,,0.00,TxWx,2013-05-09 05:55:00,
2013-05-09 02:00:00,60.0,58.0,29.98,SSE,157,3.0,3.0,95,0.00,,,0.00,TxWx,2013-05-09 06:00:00,
2013-05-09 02:05:00,60.0,58.0,29.97,South,180,1.0,3.0,95,0.00,,,0.00,TxWx,2013-05-09 06:05:00,
2013-05-09 02:10:00,60.0,58.0,29.97,SE,135,1.0,2.0,95,0.00,,,0.00,TxWx,2013-05-09 06:10:00,
2013-05-09 02:15:00,60.0,59.0,29.97,ESE,112,3.0,3.0,95,0.00,,,0.00,TxWx,2013-05-09 06:15:00,
2013-05-09 02:20:00,60.0,59.0,29.97,SE,135,0.0,0.0,95,0.00,,,0.00,TxWx,2013-05-09 06:20:00,
2013-05-09 02:25:00,60.0,59.0,29.97,SSE,157,1.0,1.0,96,0.00,,,0.00,TxWx,2013-05-09 06:25:00,
2013-05-09 02:30:00,60.0,59.0,29.96,ESE,112,0.0,0.0,96,0.00,,,0.00,TxWx,2013-05-09 06:30:00,
2013-05-09 02:35:00,59.0,58.0,29.96,ESE,112,0.0,1.0,96,0.00,,,0.00,TxWx,2013-05-09 06:35:00,
2013-05-09 02:40:00,59.0,58.0,29.96,ESE,112,0.0,0.0,96,0.00,,,0.00,TxWx,2013-05-09 06:40:00,
2013-05-09 02:45:00,59.0,58.0,29.96,ESE,112,0.0,0.0,96,0.00,,,0.00,TxWx,2013-05-09 06:45:00,
2013-05-09 02:51:00,59.0,58.0,29.95,ESE,112,0.0,0.0,97,0.00,,,0.00,TxWx,2013-05-09 06:51:00,
2013-05-09 02:56:00,59.0,58.0,29.96,ESE,112,0.0,0.0,97,0.00,,,0.00,TxWx,2013-05-09 06:56:00,
2013-05-09 03:01:00,59.0,58.0,29.96,ESE,112,1.0,1.0,97,0.00,,,0.00,TxWx,2013-05-09 07:01:00,
2013-05-09 03:06:00,59.0,58.0,29.96,ESE,112,0.0,0.0,97,0.00,,,0.00,TxWx,2013-05-09 07:06:00,
2013-05-09 03:11:00,58.0,57.0,29.95,ESE,112,0.0,0.0,97,0.00,,,0.00,TxWx,2013-05-09 07:11:00,
2013-05-09 03:16:00,58.0,57.0,29.95,ESE,112,0.0,0.0,97,0.00,,,0.00,TxWx,2013-05-09 07:16:00,
2013-05-09 03:21:00,58.0,57.0,29.95,SSE,157,0.0,0.0,97,0.00,,,0.00,TxWx,2013-05-09 07:21:00,
2013-05-09 03:26:00,58.0,57.0,29.95,SW,225,2.0,3.0,98,0.00,,,0.00,TxWx,2013-05-09 07:26:00,
2013-05-09 03:31:00,58.0,57.0,29.96,WSW,247,3.0,3.0,98,0.00,,,0.00,TxWx,2013-05-09 07:31:00,
2013-05-09 03:36:00,58.0,57.0,29.95,West,270,3.0,4.0,98,0.00,,,0.00,TxWx,2013-05-09 07:36:00,
2013-05-09 03:41:00,58.0,57.0,29.95,SW,225,3.0,3.0,98,0.00,,,0.00,TxWx,2013-05-09 07:41:00,
2013-05-09 03:46:00,58.0,57.0,29.95,SSW,202,0.0,2.0,98,0.00,,,0.00,TxWx,2013-05-09 07:46:00,
2013-05-09 03:51:00,58.0,57.0,29.95,SSE,157,0.0,0.0,98,0.00,,,0.00,TxWx,2013-05-09 07:51:00,
2013-05-09 03:56:00,58.0,58.0,29.95,SSW,202,3.0,3.0,99,0.00,,,0.00,TxWx,2013-05-09 07:56:00,
2013-05-09 04:01:00,58.0,58.0,29.95,SW,225,3.0,3.0,99,0.00,,,0.00,TxWx,2013-05-09 08:01:00,
2013-05-09 04:06:00,58.0,58.0,29.95,South,180,1.0,1.0,99,0.00,,,0.00,TxWx,2013-05-09 08:06:00,
2013-05-09 04:12:00,58.0,58.0,29.95,South,180,0.0,0.0,99,0.00,,,0.00,TxWx,2013-05-09 08:12:00,
2013-05-09 04:17:00,57.0,57.0,29.95,ESE,112,0.0,0.0,99,0.00,,,0.00,TxWx,2013-05-09 08:17:00,
2013-05-09 04:22:00,57.0,57.0,29.95,ESE,112,0.0,0.0,99,0.00,,,0.00,TxWx,2013-05-09 08:22:00,
2013-05-09 04:27:00,57.0,57.0,29.95,South,180,2.0,2.0,99,0.00,,,0.00,TxWx,2013-05-09 08:27:00,
2013-05-09 04:32:00,57.0,57.0,29.95,SSE,157,1.0,1.0,99,0.00,,,0.00,TxWx,2013-05-09 08:32:00,
2013-05-09 04:37:00,57.0,57.0,29.95,South,180,0.0,0.0,99,0.00,,,0.00,TxWx,2013-05-09 08:37:00,
2013-05-09 04:42:00,57.0,57.0,29.95,SE,135,0.0,0.0,100,0.00,,,0.00,TxWx,2013-05-09 08:42:00,
2013-05-09 04:47:00,57.0,57.0,29.95,SSE,157,0.0,0.0,100,0.00,,,0.00,TxWx,2013-05-09 08:47:00,
2013-05-09 04:52:00,57.0,57.0,29.95,South,180,0.0,0.0,100,0.00,,,0.00,TxWx,2013-05-09 08:52:00,
2013-05-09 04:57:00,57.0,57.0,29.95,South,180,0.0,0.0,100,0.00,,,0.00,TxWx,2013-05-09 08:57:00,
2013-05-09 05:02:00,57.0,57.0,29.95,South,180,0.0,0.0,100,0.00,,,0.00,TxWx,2013-05-09 09:02:00,
2013-05-09 05:07:00,56.0,56.0,29.95,South,180,0.0,0.0,100,0.00,,,0.00,TxWx,2013-05-09 09:07:00,
2013-05-09 05:12:00,56.0,56.0,29.95,South,180,0.0,0.0,100,0.00,,,0.00,TxWx,2013-05-09 09:12:00,
2013-05-09 05:17:00,56.0,56.0,29.95,SW,225,0.0,0.0,100,0.00,,,0.00,TxWx,2013-05-09 09:17:00,
2013-05-09 05:22:00,56.0,56.0,29.95,NE,45,0.0,0.0,100,0.00,,,0.00,TxWx,2013-05-09 09:22:00,
2013-05-09 05:27:00,56.0,56.0,29.95,ENE,67,0.0,0.0,100,0.00,,,0.00,TxWx,2013-05-09 09:27:00,
2013-05-09 05:33:00,56.0,56.0,29.95,ENE,67,0.0,0.0,100,0.00,,,0.00,TxWx,2013-05-09 09:33:00,
2013-05-09 05:38:00,55.0,55.0,29.95,ENE,67,0.0,0.0,100,0.00,,,0.00,TxWx,2013-05-09 09:38:00,
2013-05-09 05:43:00,55.0,55.0,29.95,ENE,67,0.0,0.0,100,0.00,,,0.00,TxWx,2013-05-09 09:43:00,
2013-05-09 05:48:00,55.0,55.0,29.96,ENE,67,0.0,0.0,100,0.00,,,0.00,TxWx,2013-05-09 09:48:00,
2013-05-09 05:53:00,55.0,55.0,29.96,SE,135,0.0,0.0,100,0.00,,,0.00,TxWx,2013-05-09 09:53:00,
2013-05-09 05:58:00,55.0,55.0,29.96,SE,135,0.0,0.0,100,0.00,,,0.00,TxWx,2013-05-09 09:58:00,
2013-05-09 06:03:00,55.0,55.0,29.96,SE,135,0.0,0.0,100,0.00,,,0.00,TxWx,2013-05-09 10:03:00,
2013-05-09 06:08:00,55.0,55.0,29.96,ENE,67,0.0,0.0,100,0.00,,,0.00,TxWx,2013-05-09 10:08:00,
2013-05-09 06:13:00,55.0,55.0,29.96,NE,45,0.0,0.0,100,0.00,,,0.00,TxWx,2013-05-09 10:13:00,
2013-05-09 06:18:00,55.0,55.0,29.96,NE,45,0.0,0.0,100,0.00,,,0.00,TxWx,2013-05-09 10:18:00,
2013-05-09 06:23:00,55.0,55.0,29.96,NE,45,0.0,0.0,100,0.00,,,0.00,TxWx,2013-05-09 10:23:00,
2013-05-09 06:28:00,55.0,55.0,29.96,NE,45,0.0,0.0,100,0.00,,,0.00,TxWx,2013-05-09 10:28:00,
2013-05-09 06:33:00,56.0,56.0,29.96,NE,45,0.0,0.0,100,0.00,,,0.00,TxWx,2013-05-09 10:33:00,
2013-05-09 06:38:00,56.0,56.0,29.96,NE,45,0.0,0.0,100,0.00,,,0.00,TxWx,2013-05-09 10:38:00,
2013-05-09 06:44:00,56.0,56.0,29.96,ENE,67,0.0,1.0,100,0.00,,,0.00,TxWx,2013-05-09 10:44:00,
2013-05-09 06:49:00,56.0,56.0,29.96,ENE,67,2.0,2.0,100,0.00,,,0.00,TxWx,2013-05-09 10:49:00,
2013-05-09 06:54:00,56.0,56.0,29.96,ENE,67,0.0,0.0,100,0.00,,,0.00,TxWx,2013-05-09 10:54:00,
2013-05-09 06:59:00,56.0,56.0,29.96,East,90,0.0,1.0,100,0.00,,,0.00,TxWx,2013-05-09 10:59:00,
2013-05-09 07:04:00,57.0,57.0,29.96,East,90,0.0,0.0,100,0.00,,,0.00,TxWx,2013-05-09 11:04:00,
2013-05-09 07:09:00,57.0,57.0,29.96,ENE,67,0.0,0.0,100,0.00,,,0.00,TxWx,2013-05-09 11:09:00,
2013-05-09 07:14:00,57.0,57.0,29.96,East,90,0.0,0.0,100,0.00,,,0.00,TxWx,2013-05-09 11:14:00,
2013-05-09 07:19:00,57.0,57.0,29.96,East,90,0.0,0.0,100,0.00,,,0.00,TxWx,2013-05-09 11:19:00,
2013-05-09 07:24:00,57.0,57.0,29.96,East,90,2.0,3.0,100,0.00,,,0.00,TxWx,2013-05-09 11:24:00,
2013-05-09 07:29:00,57.0,57.0,29.96,ESE,112,3.0,3.0,100,0.00,,,0.00,TxWx,2013-05-09 11:29:00,
2013-05-09 07:34:00,57.0,57.0,29.97,ESE,112,0.0,0.0,100,0.00,,,0.00,TxWx,2013-05-09 11:34:00,
2013-05-09 07:39:00,57.0,57.0,29.97,SE,135,0.0,0.0,100,0.00,,,0.00,TxWx,2013-05-09 11:39:00,
2013-05-09 07:45:00,57.0,57.0,29.97,SSE,157,0.0,0.0,100,0.00,,,0.00,TxWx,2013-05-09 11:45:00,
2013-05-09 07:50:00,58.0,58.0,29.97,ESE,112,3.0,3.0,100,0.00,,,0.00,TxWx,2013-05-09 11:50:00,
2013-05-09 07:55:00,58.0,58.0,29.97,ESE,112,3.0,5.0,100,0.00,,,0.00,TxWx,2013-05-09 11:55:00,
2013-05-09 08:00:00,58.0,58.0,29.97,ESE,112,1.0,3.0,100,0.00,,,0.00,TxWx,2013-05-09 12:00:00,
2013-05-09 08:05:00,58.0,58.0,29.97,SE,135,1.0,2.0,100,0.00,,,0.00,TxWx,2013-05-09 12:05:00,
2013-05-09 08:10:00,59.0,59.0,29.97,ESE,112,3.0,4.0,100,0.00,,,0.00,TxWx,2013-05-09 12:10:00,
2013-05-09 08:15:00,59.0,59.0,29.97,SSE,157,2.0,2.0,100,0.00,,,0.00,TxWx,2013-05-09 12:15:00,
2013-05-09 08:20:00,59.0,59.0,29.97,East,90,3.0,5.0,100,0.00,,,0.00,TxWx,2013-05-09 12:20:00,
2013-05-09 08:25:00,59.0,59.0,29.97,SSE,157,3.0,5.0,100,0.00,,,0.00,TxWx,2013-05-09 12:25:00,
2013-05-09 08:30:00,59.0,59.0,29.97,ESE,112,1.0,2.0,99,0.00,,,0.00,TxWx,2013-05-09 12:30:00,
2013-05-09 08:35:00,60.0,60.0,29.97,ESE,112,2.0,3.0,99,0.00,,,0.00,TxWx,2013-05-09 12:35:00,
2013-05-09 08:40:00,60.0,59.0,29.97,ESE,112,0.0,1.0,98,0.00,,,0.00,TxWx,2013-05-09 12:40:00,
2013-05-09 08:45:00,60.0,59.0,29.97,SE,135,2.0,3.0,97,0.00,,,0.00,TxWx,2013-05-09 12:45:00,
2013-05-09 08:51:00,60.0,59.0,29.97,SSE,157,3.0,3.0,96,0.00,,,0.00,TxWx,2013-05-09 12:51:00,
2013-05-09 08:56:00,60.0,59.0,29.97,SSE,157,4.0,5.0,96,0.00,,,0.00,TxWx,2013-05-09 12:56:00,
2013-05-09 09:01:00,60.0,58.0,29.97,South,180,6.0,6.0,95,0.00,,,0.00,TxWx,2013-05-09 13:01:00,
2013-05-09 09:06:00,60.0,58.0,29.96,South,180,5.0,6.0,94,0.00,,,0.00,TxWx,2013-05-09 13:06:00,
2013-05-09 09:11:00,60.0,58.0,29.97,WSW,247,5.0,5.0,94,0.00,,,0.00,TxWx,2013-05-09 13:11:00,
2013-05-09 09:16:00,60.0,58.0,29.96,South,180,5.0,6.0,93,0.00,,,0.00,TxWx,2013-05-09 13:16:00,
2013-05-09 09:21:00,60.0,58.0,29.96,SSE,157,4.0,4.0,92,0.00,,,0.00,TxWx,2013-05-09 13:21:00,
2013-05-09 09:26:00,61.0,58.0,29.96,South,180,5.0,5.0,91,0.00,,,0.00,TxWx,2013-05-09 13:26:00,
2013-05-09 09:31:00,61.0,58.0,29.96,ESE,112,4.0,7.0,91,0.00,,,0.00,TxWx,2013-05-09 13:31:00,
2013-05-09 09:36:00,61.0,58.0,29.96,South,180,5.0,5.0,90,0.00,,,0.00,TxWx,2013-05-09 13:36:00,
2013-05-09 09:42:00,61.0,58.0,29.96,SSE,157,4.0,6.0,89,0.00,,,0.00,TxWx,2013-05-09 13:42:00,
2013-05-09 09:47:00,61.0,58.0,29.96,South,180,4.0,6.0,89,0.00,,,0.00,TxWx,2013-05-09 13:47:00,
2013-05-09 09:52:00,61.0,57.0,29.96,South,180,7.0,7.0,88,0.00,,,0.00,TxWx,2013-05-09 13:52:00,
2013-05-09 09:57:00,61.0,57.0,29.96,SSE,157,8.0,8.0,87,0.00,,,0.00,TxWx,2013-05-09 13:57:00,
2013-05-09 10:02:00,62.0,58.0,29.96,SSE,157,6.0,6.0,87,0.00,,,0.00,TxWx,2013-05-09 14:02:00,
2013-05-09 10:07:00,62.0,58.0,29.96,ESE,112,5.0,5.0,86,0.00,,,0.00,TxWx,2013-05-09 14:07:00,
2013-05-09 10:12:00,62.0,58.0,29.96,South,180,6.0,6.0,86,0.00,,,0.00,TxWx,2013-05-09 14:12:00,
2013-05-09 10:17:00,62.0,58.0,29.96,SSE,157,4.0,5.0,86,0.00,,,0.00,TxWx,2013-05-09 14:17:00,
2013-05-09 10:22:00,62.0,58.0,29.95,SSE,157,4.0,6.0,86,0.00,,,0.00,TxWx,2013-05-09 14:22:00,
2013-05-09 10:27:00,62.0,57.0,29.95,SSE,157,5.0,8.0,85,0.00,,,0.00,TxWx,2013-05-09 14:27:00,
2013-05-09 10:32:00,62.0,57.0,29.95,SSE,157,4.0,4.0,85,0.00,,,0.00,TxWx,2013-05-09 14:32:00,
2013-05-09 10:38:00,63.0,58.0,29.95,SSE,157,6.0,8.0,85,0.00,,,0.00,TxWx,2013-05-09 14:38:00,
2013-05-09 10:43:00,63.0,58.0,29.95,SSE,157,4.0,5.0,85,0.00,,,0.00,TxWx,2013-05-09 14:43:00,
2013-05-09 10:48:00,63.0,58.0,29.95,SSE,157,6.0,6.0,84,0.00,,,0.00,TxWx,2013-05-09 14:48:00,
2013-05-09 10:53:00,63.0,58.0,29.95,South,180,5.0,6.0,84,0.00,,,0.00,TxWx,2013-05-09 14:53:00,
2013-05-09 10:58:00,63.0,58.0,29.95,SSE,157,6.0,6.0,84,0.00,,,0.00,TxWx,2013-05-09 14:58:00,
2013-05-09 11:03:00,63.0,58.0,29.95,SE,135,4.0,6.0,84,0.00,,,0.00,TxWx,2013-05-09 15:03:00,
2013-05-09 11:08:00,62.0,57.0,29.95,South,180,4.0,5.0,84,0.00,,,0.00,TxWx,2013-05-09 15:08:00,
2013-05-09 11:13:00,62.0,57.0,29.95,South,180,5.0,5.0,84,0.00,,,0.00,TxWx,2013-05-09 15:13:00,
2013-05-09 11:18:00,62.0,57.0,29.95,SSW,202,5.0,6.0,84,0.00,,,0.00,TxWx,2013-05-09 15:18:00,
2013-05-09 11:23:00,62.0,57.0,29.95,ESE,112,4.0,5.0,84,0.00,,,0.00,TxWx,2013-05-09 15:23:00,
2013-05-09 11:28:00,63.0,58.0,29.95,SSE,157,5.0,6.0,84,0.00,,,0.00,TxWx,2013-05-09 15:28:00,
2013-05-09 11:33:00,63.0,58.0,29.95,SSE,157,3.0,4.0,84,0.00,,,0.00,TxWx,2013-05-09 15:33:00,
2013-05-09 11:38:00,63.0,58.0,29.94,SSE,157,4.0,6.0,84,0.00,,,0.00,TxWx,2013-05-09 15:38:00,
2013-05-09 11:43:00,63.0,58.0,29.94,SSE,157,2.0,2.0,83,0.00,,,0.00,TxWx,2013-05-09 15:43:00,
2013-05-09 11:49:00,63.0,58.0,29.94,ESE,112,3.0,3.0,83,0.00,,,0.00,TxWx,2013-05-09 15:49:00,
2013-05-09 11:54:00,64.0,58.0,29.94,ESE,112,3.0,5.0,82,0.00,,,0.00,TxWx,2013-05-09 15:54:00,
2013-05-09 11:59:00,64.0,58.0,29.94,SSE,157,4.0,6.0,82,0.00,,,0.00,TxWx,2013-05-09 15:59:00,
2013-05-09 12:04:00,64.0,58.0,29.94,SE,135,5.0,6.0,81,0.00,,,0.00,TxWx,2013-05-09 16:04:00,
2013-05-09 12:09:00,64.0,58.0,29.94,South,180,5.0,5.0,80,0.00,,,0.00,TxWx,2013-05-09 16:09:00,
2013-05-09 12:14:00,65.0,58.0,29.94,ESE,112,4.0,6.0,79,0.00,,,0.00,TxWx,2013-05-09 16:14:00,
2013-05-09 12:19:00,65.0,58.0,29.94,ESE,112,3.0,5.0,79,0.00,,,0.00,TxWx,2013-05-09 16:19:00,
2013-05-09 12:24:00,65.0,58.0,29.93,South,180,5.0,8.0,79,0.00,,,0.00,TxWx,2013-05-09 16:24:00,
2013-05-09 12:29:00,65.0,58.0,29.93,ESE,112,1.0,3.0,79,0.00,,,0.00,TxWx,2013-05-09 16:29:00,
2013-05-09 12:34:00,65.0,58.0,29.93,South,180,6.0,8.0,79,0.00,,,0.00,TxWx,2013-05-09 16:34:00,
2013-05-09 12:39:00,65.0,58.0,29.93,South,180,6.0,7.0,78,0.00,,,0.00,TxWx,2013-05-09 16:39:00,
2013-05-09 12:44:00,65.0,58.0,29.93,SSE,157,4.0,5.0,78,0.00,,,0.00,TxWx,2013-05-09 16:44:00,
2013-05-09 12:49:00,65.0,58.0,29.93,South,180,4.0,5.0,78,0.00,,,0.00,TxWx,2013-05-09 16:49:00,
2013-05-09 12:54:00,65.0,58.0,29.93,ESE,112,5.0,6.0,78,0.00,,,0.00,TxWx,2013-05-09 16:54:00,
2013-05-09 12:59:00,65.0,58.0,29.93,South,180,5.0,5.0,78,0.00,,,0.00,TxWx,2013-05-09 16:59:00,
2013-05-09 13:05:00,66.0,59.0,29.92,ESE,112,5.0,5.0,78,0.00,,,0.00,TxWx,2013-05-09 17:05:00,
2013-05-09 13:10:00,66.0,59.0,29.92,South,180,6.0,7.0,77,0.00,,,0.00,TxWx,2013-05-09 17:10:00,
2013-05-09 13:15:00,66.0,59.0,29.92,ESE,112,1.0,3.0,77,0.00,,,0.00,TxWx,2013-05-09 17:15:00,
2013-05-09 13:20:00,66.0,58.0,29.92,SSE,157,5.0,5.0,77,0.00,,,0.00,TxWx,2013-05-09 17:20:00,
2013-05-09 13:25:00,66.0,58.0,29.92,ESE,112,5.0,6.0,77,0.00,,,0.00,TxWx,2013-05-09 17:25:00,
2013-05-09 13:30:00,66.0,58.0,29.92,South,180,3.0,5.0,76,0.00,,,0.00,TxWx,2013-05-09 17:30:00,
2013-05-09 13:35:00,66.0,58.0,29.92,South,180,5.0,6.0,76,0.00,,,0.00,TxWx,2013-05-09 17:35:00,
2013-05-09 13:40:00,67.0,59.0,29.91,South,180,3.0,4.0,76,0.00,,,0.00,TxWx,2013-05-09 17:40:00,
2013-05-09 13:45:00,67.0,59.0,29.91,SE,135,0.0,1.0,76,0.00,,,0.00,TxWx,2013-05-09 17:45:00,
2013-05-09 13:50:00,67.0,59.0,29.91,West,270,7.0,7.0,75,0.00,,,0.00,TxWx,2013-05-09 17:50:00,
2013-05-09 13:55:00,68.0,60.0,29.91,West,270,2.0,3.0,75,0.00,,,0.00,TxWx,2013-05-09 17:55:00,
2013-05-09 14:01:00,68.0,59.0,29.90,South,180,6.0,7.0,73,0.00,,,0.00,TxWx,2013-05-09 18:01:00,
2013-05-09 14:06:00,69.0,60.0,29.90,South,180,3.0,3.0,73,0.00,,,0.00,TxWx,2013-05-09 18:06:00,
2013-05-09 14:11:00,69.0,59.0,29.89,SSE,157,5.0,6.0,71,0.00,,,0.00,TxWx,2013-05-09 18:11:00,
2013-05-09 14:16:00,69.0,59.0,29.90,SSW,202,7.0,9.0,70,0.00,,,0.00,TxWx,2013-05-09 18:16:00,
2013-05-09 14:21:00,69.0,59.0,29.89,SE,135,5.0,6.0,70,0.00,,,0.00,TxWx,2013-05-09 18:21:00,
2013-05-09 14:26:00,69.0,59.0,29.90,ESE,112,8.0,9.0,71,0.00,,,0.00,TxWx,2013-05-09 18:26:00,
2013-05-09 14:31:00,69.0,59.0,29.89,South,180,5.0,5.0,71,0.00,,,0.00,TxWx,2013-05-09 18:31:00,
2013-05-09 14:36:00,69.0,59.0,29.89,ESE,112,8.0,11.0,71,0.00,,,0.00,TxWx,2013-05-09 18:36:00,
2013-05-09 14:41:00,69.0,59.0,29.89,SE,135,5.0,6.0,70,0.00,,,0.00,TxWx,2013-05-09 18:41:00,
2013-05-09 14:46:00,69.0,60.0,29.88,SE,135,5.0,9.0,72,0.00,,,0.00,TxWx,2013-05-09 18:46:00,
2013-05-09 14:51:00,69.0,60.0,29.89,ESE,112,5.0,5.0,72,0.00,,,0.00,TxWx,2013-05-09 18:51:00,
2013-05-09 14:56:00,69.0,59.0,29.88,South,180,6.0,6.0,71,0.00,,,0.00,TxWx,2013-05-09 18:56:00,
2013-05-09 15:01:00,60.0,58.0,29.91,SE,135,0.0,0.0,92,0.00,,,0.00,TxWx,2013-05-09 19:01:00,
2013-05-09 15:02:00,69.0,58.0,29.88,SSW,202,5.0,7.0,69,0.00,,,0.00,TxWx,2013-05-09 19:02:00,
2013-05-09 15:03:00,60.0,58.0,29.91,SE,135,0.0,0.0,92,0.00,,,0.00,TxWx,2013-05-09 19:03:00,
2013-05-09 15:04:00,60.0,58.0,29.91,SE,135,0.0,0.0,92,0.00,,,0.00,TxWx,2013-05-09 19:04:00,
2013-05-09 15:05:00,60.0,58.0,29.91,SE,135,0.0,0.0,92,0.00,,,0.00,TxWx,2013-05-09 19:05:00,
2013-05-09 15:06:00,60.0,58.0,29.91,SE,135,0.0,0.0,92,0.00,,,0.00,TxWx,2013-05-09 19:06:00,
2013-05-09 15:07:00,69.0,58.0,29.88,ESE,112,2.0,4.0,69,0.00,,,0.00,TxWx,2013-05-09 19:07:00,
2013-05-09 15:08:00,60.0,58.0,29.91,ESE,112,0.0,0.0,92,0.00,,,0.00,TxWx,2013-05-09 19:08:00,
2013-05-09 15:09:00,60.0,58.0,29.91,ESE,112,0.0,1.0,92,0.00,,,0.00,TxWx,2013-05-09 19:09:00,
2013-05-09 15:10:00,60.0,58.0,29.91,ESE,112,0.0,0.0,92,0.00,,,0.00,TxWx,2013-05-09 19:10:00,
2013-05-09 15:11:00,60.0,58.0,29.91,ESE,112,0.0,0.0,92,0.00,,,0.00,TxWx,2013-05-09 19:11:00,
2013-05-09 15:12:00,69.0,58.0,29.88,ESE,112,4.0,5.0,68,0.00,,,0.00,TxWx,2013-05-09 19:12:00,
2013-05-09 15:14:00,59.0,57.0,29.91,ESE,112,0.0,0.0,93,0.00,,,0.00,TxWx,2013-05-09 19:14:00,
2013-05-09 15:15:00,59.0,57.0,29.91,ESE,112,0.0,0.0,93,0.00,,,0.00,TxWx,2013-05-09 19:15:00,
2013-05-09 15:16:00,59.0,57.0,29.91,ESE,112,0.0,0.0,93,0.00,,,0.00,TxWx,2013-05-09 19:16:00,
2013-05-09 15:17:00,69.0,57.0,29.88,SE,135,8.0,9.0,66,0.00,,,0.00,TxWx,2013-05-09 19:17:00,
2013-05-09 15:20:00,59.0,57.0,29.91,SSE,157,0.0,0.0,93,0.00,,,0.00,TxWx,2013-05-09 19:20:00,
2013-05-09 15:21:00,59.0,57.0,29.91,SSE,157,0.0,0.0,93,0.00,,,0.00,TxWx,2013-05-09 19:21:00,
2013-05-09 15:22:00,69.0,57.0,29.88,ESE,112,1.0,3.0,65,0.00,,,0.00,TxWx,2013-05-09 19:22:00,
2013-05-09 15:23:00,59.0,57.0,29.91,SSE,157,0.0,1.0,93,0.00,,,0.00,TxWx,2013-05-09 19:23:00,
2013-05-09 15:27:00,69.0,56.0,29.87,South,180,5.0,7.0,64,0.00,,,0.00,TxWx,2013-05-09 19:27:00,
2013-05-09 15:29:00,59.0,57.0,29.91,SSE,157,0.0,0.0,93,0.00,,,0.00,TxWx,2013-05-09 19:29:00,
2013-05-09 15:30:00,59.0,57.0,29.91,SSE,157,0.0,0.0,93,0.00,,,0.00,TxWx,2013-05-09 19:30:00,
2013-05-09 15:31:00,59.0,57.0,29.91,SSE,157,0.0,0.0,93,0.00,,,0.00,TxWx,2013-05-09 19:31:00,
2013-05-09 15:32:00,70.0,57.0,29.87,East,90,6.0,10.0,63,0.00,,,0.00,TxWx,2013-05-09 19:32:00,
2013-05-09 15:37:00,70.0,55.0,29.87,SSE,157,6.0,7.0,60,0.00,,,0.00,TxWx,2013-05-09 19:37:00,
2013-05-09 15:42:00,70.0,54.0,29.86,ESE,112,3.0,3.0,58,0.00,,,0.00,TxWx,2013-05-09 19:42:00,
2013-05-09 15:47:00,70.0,54.0,29.86,ESE,112,9.0,11.0,57,0.00,,,0.00,TxWx,2013-05-09 19:47:00,
2013-05-09 15:52:00,71.0,54.0,29.86,South,180,6.0,8.0,56,0.00,,,0.00,TxWx,2013-05-09 19:52:00,
2013-05-09 15:57:00,71.0,55.0,29.86,South,180,7.0,7.0,57,0.00,,,0.00,TxWx,2013-05-09 19:57:00,
2013-05-09 16:02:00,71.0,55.0,29.86,ESE,112,8.0,8.0,57,0.00,,,0.00,TxWx,2013-05-09 20:02:00,
2013-05-09 16:08:00,71.0,55.0,29.86,South,180,6.0,6.0,57,0.00,,,0.00,TxWx,2013-05-09 20:08:00,
2013-05-09 16:13:00,71.0,55.0,29.85,ESE,112,3.0,3.0,58,0.00,,,0.00,TxWx,2013-05-09 20:13:00,
2013-05-09 16:18:00,72.0,55.0,29.85,SSE,157,6.0,6.0,58,0.00,,,0.00,TxWx,2013-05-09 20:18:00,
2013-05-09 16:23:00,72.0,56.0,29.85,ESE,112,2.0,3.0,58,0.00,,,0.00,TxWx,2013-05-09 20:23:00,
2013-05-09 16:28:00,72.0,55.0,29.85,South,180,8.0,8.0,56,0.00,,,0.00,TxWx,2013-05-09 20:28:00,
2013-05-09 16:33:00,72.0,56.0,29.85,ESE,112,1.0,3.0,57,0.00,,,0.00,TxWx,2013-05-09 20:33:00,
2013-05-09 16:38:00,72.0,56.0,29.85,East,90,0.0,3.0,57,0.00,,,0.00,TxWx,2013-05-09 20:38:00,
2013-05-09 16:43:00,72.0,55.0,29.85,ESE,112,3.0,4.0,56,0.00,,,0.00,TxWx,2013-05-09 20:43:00,
2013-05-09 16:48:00,72.0,56.0,29.85,South,180,2.0,3.0,57,0.00,,,0.00,TxWx,2013-05-09 20:48:00,
2013-05-09 16:53:00,72.0,56.0,29.85,SSE,157,5.0,5.0,57,0.00,,,0.00,TxWx,2013-05-09 20:53:00,
2013-05-09 16:58:00,72.0,55.0,29.85,South,180,3.0,5.0,56,0.00,,,0.00,TxWx,2013-05-09 20:58:00,
2013-05-09 17:03:00,71.0,54.0,29.85,SSE,157,5.0,6.0,56,0.00,,,0.00,TxWx,2013-05-09 21:03:00,
2013-05-09 17:07:00,56.0,56.0,29.92,West,270,0.0,0.0,99,0.00,,,0.00,TxWx,2013-05-09 21:07:00,
2013-05-09 17:08:00,72.0,56.0,29.85,SSE,157,1.0,2.0,57,0.00,,,0.00,TxWx,2013-05-09 21:08:00,
2013-05-09 17:14:00,72.0,56.0,29.85,ENE,67,2.0,6.0,58,0.00,,,0.00,TxWx,2013-05-09 21:14:00,
2013-05-09 17:19:00,72.0,56.0,29.85,South,180,4.0,5.0,57,0.00,,,0.00,TxWx,2013-05-09 21:19:00,
2013-05-09 17:24:00,72.0,56.0,29.85,SE,135,4.0,5.0,58,0.00,,,0.00,TxWx,2013-05-09 21:24:00,
2013-05-09 17:29:00,72.0,56.0,29.85,South,180,3.0,3.0,58,0.00,,,0.00,TxWx,2013-05-09 21:29:00,
2013-05-09 17:34:00,71.0,56.0,29.85,SW,225,4.0,6.0,59,0.00,,,0.00,TxWx,2013-05-09 21:34:00,
2013-05-09 17:39:00,71.0,56.0,29.85,SSE,157,3.0,5.0,60,0.00,,,0.00,TxWx,2013-05-09 21:39:00,
2013-05-09 17:44:00,71.0,56.0,29.85,SSE,157,5.0,5.0,60,0.00,,,0.00,TxWx,2013-05-09 21:44:00,
2013-05-09 17:49:00,70.0,56.0,29.85,SW,225,8.0,8.0,62,0.00,,,0.00,TxWx,2013-05-09 21:49:00,
2013-05-09 17:54:00,70.0,57.0,29.85,WSW,247,12.0,12.0,64,0.00,,,0.00,TxWx,2013-05-09 21:54:00,
2013-05-09 17:59:00,70.0,57.0,29.85,SW,225,8.0,8.0,65,0.00,,,0.00,TxWx,2013-05-09 21:59:00,
2013-05-09 18:04:00,70.0,57.0,29.85,SSW,202,3.0,5.0,65,0.00,,,0.00,TxWx,2013-05-09 22:04:00,
2013-05-09 18:09:00,70.0,57.0,29.85,SSW,202,5.0,6.0,64,0.00,,,0.00,TxWx,2013-05-09 22:09:00,
2013-05-09 18:15:00,70.0,57.0,29.85,SSW,202,7.0,7.0,63,0.00,,,0.00,TxWx,2013-05-09 22:15:00,
2013-05-09 18:20:00,70.0,57.0,29.85,South,180,5.0,6.0,63,0.00,,,0.00,TxWx,2013-05-09 22:20:00,
2013-05-09 18:25:00,70.0,56.0,29.85,SSW,202,6.0,6.0,62,0.00,,,0.00,TxWx,2013-05-09 22:25:00,
2013-05-09 18:30:00,70.0,57.0,29.85,SW,225,5.0,5.0,63,0.00,,,0.00,TxWx,2013-05-09 22:30:00,
2013-05-09 18:35:00,70.0,57.0,29.85,SSW,202,3.0,3.0,63,0.00,,,0.00,TxWx,2013-05-09 22:35:00,
2013-05-09 18:40:00,70.0,57.0,29.85,South,180,6.0,7.0,64,0.00,,,0.00,TxWx,2013-05-09 22:40:00,
2013-05-09 18:45:00,69.0,56.0,29.85,West,270,4.0,6.0,64,0.00,,,0.00,TxWx,2013-05-09 22:45:00,
2013-05-09 18:50:00,69.0,57.0,29.85,West,270,3.0,3.0,65,0.00,,,0.00,TxWx,2013-05-09 22:50:00,
2013-05-09 18:55:00,69.0,57.0,29.85,West,270,2.0,3.0,66,0.00,,,0.00,TxWx,2013-05-09 22:55:00,
2013-05-09 19:00:00,69.0,57.0,29.85,SW,225,2.0,3.0,66,0.00,,,0.00,TxWx,2013-05-09 23:00:00,
2013-05-09 19:03:00,56.0,56.0,29.93,SE,135,0.0,0.0,100,0.00,,,0.00,TxWx,2013-05-09 23:03:00,
2013-05-09 19:04:00,56.0,56.0,29.93,SE,135,0.0,0.0,100,0.00,,,0.00,TxWx,2013-05-09 23:04:00,
2013-05-09 19:05:00,69.0,57.0,29.85,SSW,202,0.0,1.0,66,0.00,,,0.00,TxWx,2013-05-09 23:05:00,
2013-05-09 19:06:00,56.0,56.0,29.93,SE,135,0.0,0.0,100,0.00,,,0.00,TxWx,2013-05-09 23:06:00,
2013-05-09 19:07:00,55.0,55.0,29.93,SE,135,0.0,0.0,100,0.00,,,0.00,TxWx,2013-05-09 23:07:00,
2013-05-09 19:08:00,55.0,55.0,29.93,SE,135,0.0,0.0,100,0.00,,,0.00,TxWx,2013-05-09 23:08:00,
2013-05-09 19:10:00,69.0,57.0,29.86,SSW,202,2.0,3.0,66,0.00,,,0.00,TxWx,2013-05-09 23:10:00,
2013-05-09 19:15:00,69.0,57.0,29.86,SSE,157,0.0,0.0,66,0.00,,,0.00,TxWx,2013-05-09 23:15:00,
2013-05-09 19:21:00,69.0,57.0,29.86,SSE,157,0.0,1.0,66,0.00,,,0.00,TxWx,2013-05-09 23:21:00,
2013-05-09 19:26:00,69.0,57.0,29.87,SSE,157,1.0,1.0,66,0.00,,,0.00,TxWx,2013-05-09 23:26:00,
2013-05-09 19:31:00,69.0,57.0,29.87,SW,225,1.0,1.0,66,0.00,,,0.00,TxWx,2013-05-09 23:31:00,
2013-05-09 19:36:00,69.0,58.0,29.87,SSE,157,0.0,0.0,67,0.00,,,0.00,TxWx,2013-05-09 23:36:00,
2013-05-09 19:41:00,69.0,58.0,29.87,ESE,112,4.0,4.0,68,0.00,,,0.00,TxWx,2013-05-09 23:41:00,
2013-05-09 19:46:00,68.0,58.0,29.87,ESE,112,2.0,3.0,70,0.00,,,0.00,TxWx,2013-05-09 23:46:00,
2013-05-09 19:51:00,68.0,58.0,29.87,SE,135,2.0,3.0,71,0.00,,,0.00,TxWx,2013-05-09 23:51:00,
2013-05-09 19:54:00,55.0,55.0,29.93,ESE,112,0.0,1.0,100,0.00,,,0.00,TxWx,2013-05-09 23:54:00,
2013-05-09 19:55:00,55.0,55.0,29.93,East,90,0.0,0.0,100,0.00,,,0.00,TxWx,2013-05-09 23:55:00,
2013-05-09 19:56:00,68.0,58.0,29.88,ESE,112,1.0,1.0,72,0.00,,,0.00,TxWx,2013-05-09 23:56:00,
2013-05-09 19:57:00,55.0,55.0,29.93,East,90,0.0,0.0,100,0.00,,,0.00,TxWx,2013-05-09 23:57:00,
2013-05-09 20:01:00,68.0,59.0,29.88,SE,135,2.0,3.0,72,0.00,,,0.00,TxWx,2013-05-10 00:01:00,
2013-05-09 20:06:00,67.0,58.0,29.88,SE,135,3.0,5.0,73,0.00,,,0.00,TxWx,2013-05-10 00:06:00,
2013-05-09 20:11:00,67.0,58.0,29.88,SE,135,3.0,4.0,73,0.00,,,0.00,TxWx,2013-05-10 00:11:00,
2013-05-09 20:17:00,67.0,58.0,29.89,SE,135,2.0,3.0,74,0.00,,,0.00,TxWx,2013-05-10 00:17:00,
2013-05-09 20:22:00,67.0,58.0,29.89,SE,135,0.0,1.0,74,0.00,,,0.00,TxWx,2013-05-10 00:22:00,
2013-05-09 20:27:00,67.0,59.0,29.89,ESE,112,0.0,0.0,75,0.00,,,0.00,TxWx,2013-05-10 00:27:00,
2013-05-09 20:32:00,67.0,59.0,29.89,ESE,112,0.0,0.0,75,0.00,,,0.00,TxWx,2013-05-10 00:32:00,
2013-05-09 20:37:00,67.0,59.0,29.89,ESE,112,2.0,3.0,75,0.00,,,0.00,TxWx,2013-05-10 00:37:00,
2013-05-09 20:42:00,66.0,58.0,29.89,ESE,112,0.0,0.0,75,0.00,,,0.00,TxWx,2013-05-10 00:42:00,
2013-05-09 20:47:00,66.0,58.0,29.90,ESE,112,3.0,4.0,76,0.00,,,0.00,TxWx,2013-05-10 00:47:00,
2013-05-09 20:52:00,66.0,59.0,29.90,ESE,112,3.0,3.0,77,0.00,,,0.00,TxWx,2013-05-10 00:52:00,
2013-05-09 20:57:00,66.0,59.0,29.90,East,90,2.0,3.0,78,0.00,,,0.00,TxWx,2013-05-10 00:57:00,
2013-05-09 21:02:00,65.0,58.0,29.90,SE,135,1.0,2.0,79,0.00,,,0.00,TxWx,2013-05-10 01:02:00,
2013-05-09 21:07:00,65.0,58.0,29.90,SE,135,2.0,2.0,79,0.00,,,0.00,TxWx,2013-05-10 01:07:00,
2013-05-09 21:12:00,65.0,58.0,29.90,SSE,157,4.0,5.0,80,0.00,,,0.00,TxWx,2013-05-10 01:12:00,
2013-05-09 21:17:00,65.0,59.0,29.90,ESE,112,0.0,0.0,80,0.00,,,0.00,TxWx,2013-05-10 01:17:00,
2013-05-09 21:22:00,64.0,58.0,29.90,ESE,112,3.0,3.0,81,0.00,,,0.00,TxWx,2013-05-10 01:22:00,
2013-05-09 21:27:00,64.0,58.0,29.91,SSE,157,0.0,0.0,81,0.00,,,0.00,TxWx,2013-05-10 01:27:00,
2013-05-09 21:33:00,64.0,58.0,29.91,SSE,157,0.0,0.0,82,0.00,,,0.00,TxWx,2013-05-10 01:33:00,
2013-05-09 21:38:00,64.0,58.0,29.91,West,270,0.0,1.0,82,0.00,,,0.00,TxWx,2013-05-10 01:38:00,
2013-05-09 21:43:00,63.0,58.0,29.91,WSW,247,3.0,3.0,83,0.00,,,0.00,TxWx,2013-05-10 01:43:00,
2013-05-09 21:48:00,63.0,58.0,29.91,WSW,247,1.0,1.0,84,0.00,,,0.00,TxWx,2013-05-10 01:48:00,
2013-05-09 21:53:00,63.0,58.0,29.91,WSW,247,0.0,0.0,85,0.00,,,0.00,TxWx,2013-05-10 01:53:00,
2013-05-09 21:58:00,63.0,58.0,29.91,WSW,247,0.0,1.0,85,0.00,,,0.00,TxWx,2013-05-10 01:58:00,
2013-05-09 22:03:00,63.0,58.0,29.91,ESE,112,0.0,0.0,85,0.00,,,0.00,TxWx,2013-05-10 02:03:00,
2013-05-09 22:08:00,63.0,59.0,29.91,ESE,112,0.0,1.0,86,0.00,,,0.00,TxWx,2013-05-10 02:08:00,
2013-05-09 22:13:00,62.0,58.0,29.91,ESE,112,0.0,1.0,86,0.00,,,0.00,TxWx,2013-05-10 02:13:00,
2013-05-09 22:18:00,62.0,58.0,29.91,ESE,112,2.0,3.0,86,0.00,,,0.00,TxWx,2013-05-10 02:18:00,
2013-05-09 22:23:00,62.0,58.0,29.91,ESE,112,0.0,0.0,87,0.00,,,0.00,TxWx,2013-05-10 02:23:00,
2013-05-09 22:28:00,62.0,58.0,29.91,ESE,112,2.0,3.0,87,0.00,,,0.00,TxWx,2013-05-10 02:28:00,
2013-05-09 22:33:00,62.0,58.0,29.91,SE,135,0.0,1.0,87,0.00,,,0.00,TxWx,2013-05-10 02:33:00,
2013-05-09 22:38:00,62.0,58.0,29.91,SSE,157,3.0,3.0,87,0.00,,,0.00,TxWx,2013-05-10 02:38:00,
2013-05-09 22:43:00,62.0,58.0,29.91,ESE,112,0.0,0.0,88,0.00,,,0.00,TxWx,2013-05-10 02:43:00,
2013-05-09 22:49:00,62.0,58.0,29.90,SSE,157,0.0,1.0,88,0.00,,,0.00,TxWx,2013-05-10 02:49:00,
2013-05-09 22:54:00,62.0,58.0,29.91,SSE,157,0.0,0.0,88,0.00,,,0.00,TxWx,2013-05-10 02:54:00,
2013-05-09 22:59:00,62.0,58.0,29.91,SSE,157,0.0,0.0,88,0.00,,,0.00,TxWx,2013-05-10 02:59:00,
2013-05-09 23:04:00,61.0,58.0,29.91,SSE,157,0.0,0.0,89,0.00,,,0.00,TxWx,2013-05-10 03:04:00,
2013-05-09 23:09:00,61.0,58.0,29.90,SE,135,2.0,3.0,89,0.00,,,0.00,TxWx,2013-05-10 03:09:00,
2013-05-09 23:14:00,61.0,58.0,29.90,SSE,157,3.0,3.0,89,0.00,,,0.00,TxWx,2013-05-10 03:14:00,
2013-05-09 23:19:00,61.0,58.0,29.90,SE,135,0.0,0.0,89,0.00,,,0.00,TxWx,2013-05-10 03:19:00,
2013-05-09 23:24:00,61.0,58.0,29.91,ESE,112,0.0,0.0,90,0.00,,,0.00,TxWx,2013-05-10 03:24:00,
2013-05-09 23:29:00,61.0,58.0,29.91,ESE,112,0.0,0.0,90,0.00,,,0.00,TxWx,2013-05-10 03:29:00,
2013-05-09 23:34:00,61.0,58.0,29.91,ESE,112,0.0,0.0,90,0.00,,,0.00,TxWx,2013-05-10 03:34:00,
2013-05-09 23:39:00,61.0,58.0,29.91,SSE,157,0.0,0.0,90,0.00,,,0.00,TxWx,2013-05-10 03:39:00,
2013-05-09 23:44:00,60.0,57.0,29.91,SSE,157,0.0,0.0,91,0.00,,,0.00,TxWx,2013-05-10 03:44:00,
2013-05-09 23:49:00,60.0,57.0,29.91,SSE,157,0.0,0.0,91,0.00,,,0.00,TxWx,2013-05-10 03:49:00,
2013-05-09 23:54:00,60.0,57.0,29.91,SSE,157,0.0,0.0,91,0.00,,,0.00,TxWx,2013-05-10 03:54:00,
2013-05-09 23:59:00,60.0,58.0,29.91,SE,135,0.0,0.0,92,0.00,,,0.00,TxWx,2013-05-10 03:59:00,